Terminal Aerodrome Forecast
Issued by NWS

Home | Current Version | Previous Version | Graphics & Text | Print | Product List | Glossary On
Versions: 1 2 3 4 5 6 7 8 9 10 11 12 13 14 15 16 17 18 19 20 21 22 23 24 25 26 27 28 29 30 31 32 33 34 35 36 37 38 39 40 41 42 43 44 45 46 47 48 49 50
000
FTUS43 KLOT 042330
TAFGYY
TAF
KGYY 042330Z 0500/0524 VRB03KT 1SM -SN BR OVC008
     FM050500 25008KT 3SM BR OVC008
     FM050900 25007KT 1SM BR OVC008
      TEMPO 0509/0513 1/4SM FZFG VV005
     FM051500 20006KT 2SM BR BKN008
     FM051900 19009KT 6SM BR BKN012=

USA.gov is the U.S. government's official web portal to all federal, state and local government web resources and services.